Time;durP1;ratioP1;P1;durP2;ratioP2;P2;SDS_P1;SDS_P2;PMS_P1;PMS_P2;Temp;Humidity;BMP_temperature;BMP_pressure;BME280_temperature;BME280_humidity;BME280_pressure;Samples;Min_cycle;Max_cycle;Signal;HPM_P1;HPM_P2
2022/10/30 07:00:31;;;;;;;;;18.33;18.00;;;;;-147.14;100.00;58812.66;5873009;23;46427;-62
2022/10/30 07:02:58;;;;;;;;;19.67;16.67;;;;;-147.14;100.00;58812.66;5003738;28;60512;-60
2022/10/30 07:05:23;;;;;;;;;26.67;23.33;;;;;-147.14;100.00;58812.66;5001195;28;45474;-60
2022/10/30 07:07:48;;;;;;;;;23.67;22.33;;;;;-147.14;100.00;58812.66;5003471;28;54948;-60
2022/10/30 07:10:14;;;;;;;;;22.67;19.00;;;;;-147.14;100.00;58812.66;5020084;28;67960;-61
2022/10/30 07:12:39;;;;;;;;;27.33;22.00;;;;;-147.14;100.00;58812.66;5019771;28;69427;-61
2022/10/30 07:15:05;;;;;;;;;25.00;22.33;;;;;-147.14;100.00;58812.66;5019876;28;45416;-61
2022/10/30 07:17:30;;;;;;;;;21.33;20.00;;;;;-147.14;100.00;58812.66;5000326;28;46035;-60
2022/10/30 07:19:55;;;;;;;;;24.00;20.00;;;;;-147.14;100.00;58812.66;5000036;28;67036;-61
2022/10/30 07:22:21;;;;;;;;;22.00;18.33;;;;;-147.14;100.00;58812.66;4999806;28;67396;-60
2022/10/30 07:24:46;;;;;;;;;19.00;17.33;;;;;-147.14;100.00;58812.66;5000011;28;64922;-62
2022/10/30 07:27:11;;;;;;;;;17.33;16.33;;;;;-147.14;100.00;58812.66;4999634;28;74490;-61
2022/10/30 07:29:37;;;;;;;;;20.00;17.67;;;;;-147.14;100.00;58812.66;4999667;28;70767;-62
2022/10/30 07:32:02;;;;;;;;;18.33;17.00;;;;;-147.14;100.00;58812.66;5000207;28;51110;-61
2022/10/30 07:34:27;;;;;;;;;23.67;19.00;;;;;-147.14;100.00;58812.66;5000786;28;45475;-61
2022/10/30 07:36:53;;;;;;;;;20.67;20.67;;;;;-147.14;100.00;58812.66;4999525;28;71271;-61
2022/10/30 07:39:18;;;;;;;;;18.67;18.67;;;;;-147.14;100.00;58812.66;4999622;28;67913;-61
2022/10/30 07:41:43;;;;;;;;;15.33;14.67;;;;;-147.14;100.00;58812.66;4999962;28;61006;-61
2022/10/30 07:44:09;;;;;;;;;17.00;14.33;;;;;-147.14;100.00;58812.66;4999610;28;66562;-61
2022/10/30 07:46:34;;;;;;;;;15.33;13.33;;;;;-147.14;100.00;58812.66;4999431;28;68882;-61
2022/10/30 07:48:59;;;;;;;;;21.67;18.67;;;;;-147.14;100.00;58812.66;4999269;28;71453;-61
2022/10/30 07:51:25;;;;;;;;;20.67;18.00;;;;;-147.14;100.00;58812.66;5001414;28;60198;-61
2022/10/30 07:53:50;;;;;;;;;18.67;17.67;;;;;-147.14;100.00;58812.66;5019699;28;62060;-61
2022/10/30 07:56:15;;;;;;;;;22.67;17.33;;;;;-147.14;100.00;58812.66;5020025;28;46051;-61
2022/10/30 07:58:40;;;;;;;;;19.00;17.67;;;;;-147.14;100.00;58812.66;5017926;28;72433;-61
2022/10/30 08:01:06;;;;;;;;;20.00;18.67;;;;;-147.14;100.00;58812.66;5019121;28;65016;-61
2022/10/30 08:03:32;;;;;;;;;25.67;22.67;;;;;-147.14;100.00;58812.66;5019840;28;45419;-61
2022/10/30 08:05:58;;;;;;;;;29.00;21.33;;;;;-147.14;100.00;58812.66;5017839;28;68374;-61
2022/10/30 08:08:23;;;;;;;;;19.00;17.33;;;;;-147.14;100.00;58812.66;4999917;28;45270;-61
2022/10/30 08:10:48;;;;;;;;;25.00;21.33;;;;;-147.14;100.00;58812.66;4999492;28;63964;-61
2022/10/30 08:13:14;;;;;;;;;10.00;8.33;;;;;-147.14;100.00;58812.66;5000183;28;45341;-60
2022/10/30 08:15:41;;;;;;;;;20.00;17.67;;;;;-147.14;100.00;58812.66;5004741;28;46075;-61
2022/10/30 08:18:06;;;;;;;;;20.67;17.67;;;;;-147.14;100.00;58812.66;4999829;28;45564;-62
2022/10/30 08:20:32;;;;;;;;;24.00;20.33;;;;;-147.14;100.00;58812.66;5000102;28;45395;-60
2022/10/30 08:22:57;;;;;;;;;26.67;21.33;;;;;-147.14;100.00;58812.66;4999057;28;63912;-61
2022/10/30 08:25:27;;;;;;;;;26.33;19.67;;;;;-147.14;100.00;58812.66;5000011;28;46037;-60
2022/10/30 08:27:55;;;;;;;;;13.67;13.67;;;;;-147.14;100.00;58812.66;4999919;28;45391;-60
2022/10/30 08:30:22;;;;;;;;;17.00;15.33;;;;;-147.14;100.00;58812.66;5001732;28;45230;-60
2022/10/30 08:32:47;;;;;;;;;15.67;13.67;;;;;-147.14;100.00;58812.66;4999713;28;45509;-61
2022/10/30 08:35:13;;;;;;;;;12.00;12.00;;;;;-147.14;100.00;58812.66;4998794;28;74933;-61
2022/10/30 08:37:38;;;;;;;;;21.00;15.00;;;;;-147.14;100.00;58812.66;4999620;28;45488;-61
2022/10/30 08:40:04;;;;;;;;;28.00;21.00;;;;;-147.14;100.00;58812.66;5001155;28;45389;-61
2022/10/30 08:42:29;;;;;;;;;28.33;24.00;;;;;-147.14;100.00;58812.66;5011671;28;45331;-61
2022/10/30 08:44:55;;;;;;;;;26.67;21.00;;;;;-147.14;100.00;58812.66;4999024;28;59944;-61
2022/10/30 08:47:20;;;;;;;;;25.33;21.00;;;;;-147.14;100.00;58812.66;4998719;28;68276;-61
2022/10/30 08:49:45;;;;;;;;;22.67;20.67;;;;;-147.14;100.00;58812.66;4998719;28;68995;-60
2022/10/30 08:52:11;;;;;;;;;23.33;20.67;;;;;-147.14;100.00;58812.66;5006348;28;68318;-61
2022/10/30 08:54:36;;;;;;;;;25.67;18.33;;;;;-147.14;100.00;58812.66;5018467;28;70716;-61
2022/10/30 08:57:01;;;;;;;;;17.67;16.67;;;;;-147.14;100.00;58812.66;5018716;28;65298;-61
2022/10/30 08:59:26;;;;;;;;;18.67;17.33;;;;;-147.14;100.00;58812.66;5018338;28;68105;-61
2022/10/30 09:01:52;;;;;;;;;22.67;20.67;;;;;-147.14;100.00;58812.66;5018358;28;68311;-60
2022/10/30 09:04:17;;;;;;;;;22.67;18.00;;;;;-147.14;100.00;58812.66;5018052;28;67823;-61
2022/10/30 09:06:43;;;;;;;;;23.33;21.33;;;;;-147.14;100.00;58812.66;5011952;28;45393;-61
2022/10/30 09:09:08;;;;;;;;;18.00;18.00;;;;;-147.14;100.00;58812.66;4999674;28;64827;-61
2022/10/30 09:11:33;;;;;;;;;27.67;19.67;;;;;-147.14;100.00;58812.66;5002014;28;67590;-60
2022/10/30 09:13:59;;;;;;;;;28.33;21.00;;;;;-147.14;100.00;58812.66;5001656;28;70026;-61
2022/10/30 09:16:24;;;;;;;;;28.67;19.33;;;;;-147.14;100.00;58812.66;5006972;28;68338;-61
2022/10/30 09:18:49;;;;;;;;;20.33;15.67;;;;;-147.14;100.00;58812.66;5001449;28;65781;-61
2022/10/30 09:21:15;;;;;;;;;20.33;18.00;;;;;-147.14;100.00;58812.66;5002582;28;45287;-61
2022/10/30 09:23:42;;;;;;;;;18.00;16.67;;;;;-147.14;100.00;58812.66;5002382;28;48642;-61
2022/10/30 09:26:07;;;;;;;;;18.67;15.67;;;;;-147.14;100.00;58812.66;5009308;28;45437;-61
2022/10/30 09:28:33;;;;;;;;;21.67;19.67;;;;;-147.14;100.00;58812.66;5019690;28;64260;-61
2022/10/30 09:31:00;;;;;;;;;27.00;21.33;;;;;-147.14;100.00;58812.66;5002661;28;45601;-61
2022/10/30 09:33:25;;;;;;;;;20.33;19.67;;;;;-147.14;100.00;58812.66;5001306;28;46424;-61
2022/10/30 09:35:51;;;;;;;;;22.33;22.33;;;;;-147.14;100.00;58812.66;5008948;28;45316;-61
2022/10/30 09:38:16;;;;;;;;;25.33;20.67;;;;;-147.14;100.00;58812.66;5021643;28;54652;-61
2022/10/30 09:40:57;;;;;;;;;23.33;19.67;;;;;-147.14;100.00;58812.66;5022231;28;45250;-61
2022/10/30 09:43:32;;;;;;;;;22.33;18.00;;;;;-147.14;100.00;58812.66;5021962;28;46329;-61
2022/10/30 09:46:21;;;;;;;;;20.33;18.67;;;;;-147.14;100.00;58812.66;5021952;28;45419;-61
2022/10/30 09:49:12;;;;;;;;;22.00;18.00;;;;;-147.14;100.00;58812.66;5020692;28;45487;-61
2022/10/30 09:52:00;;;;;;;;;20.33;16.33;;;;;-147.14;100.00;58812.66;5006718;28;45844;-61
2022/10/30 09:54:45;;;;;;;;;19.67;14.67;;;;;-147.14;100.00;58812.66;5002101;28;45325;-61
2022/10/30 09:57:38;;;;;;;;;16.00;16.00;;;;;-147.14;100.00;58812.66;5002007;28;45419;-61
2022/10/30 10:00:14;;;;;;;;;17.67;14.67;;;;;-147.14;100.00;58812.66;5002197;28;45424;-61
2022/10/30 10:03:03;;;;;;;;;15.00;14.00;;;;;-147.14;100.00;58812.66;5001796;28;45378;-61
2022/10/30 10:05:40;;;;;;;;;14.33;13.67;;;;;-147.14;100.00;58812.66;5000612;28;46189;-61
2022/10/30 10:08:21;;;;;;;;;18.00;15.33;;;;;-147.14;100.00;58812.66;5022450;28;45377;-61
2022/10/30 10:10:53;;;;;;;;;13.33;13.33;;;;;-147.14;100.00;58812.66;5020539;28;45542;-61
2022/10/30 10:13:38;;;;;;;;;11.00;9.33;;;;;-147.14;100.00;58812.66;5020707;28;45386;-61
2022/10/30 10:16:13;;;;;;;;;17.00;13.67;;;;;-147.14;100.00;58812.66;5011007;28;46753;-61
2022/10/30 10:19:04;;;;;;;;;13.67;13.67;;;;;-147.14;100.00;58812.66;4999390;28;45544;-61
2022/10/30 10:21:32;;;;;;;;;14.00;10.00;;;;;-147.14;100.00;58812.66;5009300;28;45443;-61
2022/10/30 10:24:00;;;;;;;;;12.00;12.00;;;;;-147.14;100.00;58812.66;5021137;28;53635;-61
2022/10/30 10:26:26;;;;;;;;;12.00;11.00;;;;;-147.14;100.00;58812.66;5021351;28;46486;-61
2022/10/30 10:29:11;;;;;;;;;15.33;11.00;;;;;-147.14;100.00;58812.66;5016644;28;45433;-61
2022/10/30 10:32:16;;;;;;;;;11.33;10.00;;;;;-147.14;100.00;58812.66;5000435;28;45459;-61
2022/10/30 10:35:17;;;;;;;;;11.00;9.67;;;;;-147.14;100.00;58812.66;4987114;28;45494;-61
2022/10/30 10:37:51;;;;;;;;;13.67;9.33;;;;;-147.14;100.00;58812.66;4977342;28;46117;-61
2022/10/30 10:40:41;;;;;;;;;11.67;8.67;;;;;-147.14;100.00;58812.66;5019933;28;45402;-61
2022/10/30 10:43:19;;;;;;;;;15.67;9.00;;;;;-147.14;100.00;58812.66;5021392;28;45387;-61
2022/10/30 10:45:58;;;;;;;;;15.33;10.00;;;;;-147.14;100.00;58812.66;5020122;28;45308;-61
2022/10/30 10:48:33;;;;;;;;;7.67;7.33;;;;;-147.14;100.00;58812.66;5019476;28;46317;-61
2022/10/30 10:51:03;;;;;;;;;18.00;11.33;;;;;-147.14;100.00;58812.66;5012383;28;45448;-61
2022/10/30 10:53:45;;;;;;;;;11.00;9.00;;;;;-147.14;100.00;58812.66;5001179;28;45344;-61
2022/10/30 10:56:12;;;;;;;;;13.67;12.00;;;;;-147.14;100.00;58812.66;5000130;28;45390;-61
2022/10/30 10:58:43;;;;;;;;;8.33;8.33;;;;;-147.14;100.00;58812.66;5015292;28;71309;-61
2022/10/30 11:01:22;;;;;;;;;11.33;11.00;;;;;-147.14;100.00;58812.66;4999415;28;45500;-61
2022/10/30 11:03:59;;;;;;;;;12.00;11.00;;;;;-147.14;100.00;58812.66;5016243;28;45272;-61
2022/10/30 11:06:32;;;;;;;;;13.00;11.00;;;;;-147.14;100.00;58812.66;5001082;28;45353;-61
2022/10/30 11:09:11;;;;;;;;;9.67;9.00;;;;;-147.14;100.00;58812.66;5012249;28;45996;-61
2022/10/30 11:11:36;;;;;;;;;10.75;10.75;;;;;-147.14;100.00;58812.66;5019455;28;45313;-60
2022/10/30 11:14:11;;;;;;;;;12.00;10.33;;;;;-147.14;100.00;58812.66;5019361;28;46964;-60
2022/10/30 11:16:53;;;;;;;;;15.67;12.00;;;;;-147.14;100.00;58812.66;5011247;28;45526;-60
2022/10/30 11:19:19;;;;;;;;;12.33;11.67;;;;;-147.14;100.00;58812.66;4999307;28;45608;-60
2022/10/30 11:21:47;;;;;;;;;13.00;11.67;;;;;-147.14;100.00;58812.66;4999681;28;71751;-60
2022/10/30 11:24:32;;;;;;;;;16.67;13.00;;;;;-147.14;100.00;58812.66;4999712;28;45489;-60
2022/10/30 11:27:18;;;;;;;;;19.67;16.67;;;;;-147.14;100.00;58812.66;4999584;28;45480;-61
2022/10/30 11:29:50;;;;;;;;;12.67;10.67;;;;;-147.14;100.00;58812.66;5002149;28;45462;-61
2022/10/30 11:32:21;;;;;;;;;15.00;13.00;;;;;-147.14;100.00;58812.66;5000055;28;45375;-61
2022/10/30 11:35:07;;;;;;;;;14.67;12.33;;;;;-147.14;100.00;58812.66;5016000;28;45352;-62
2022/10/30 11:37:37;;;;;;;;;14.67;12.00;;;;;-147.14;100.00;58812.66;5008477;28;45654;-61
2022/10/30 11:40:22;;;;;;;;;14.67;11.67;;;;;-147.14;100.00;58812.66;5018903;28;46549;-61
2022/10/30 11:42:56;;;;;;;;;14.67;11.33;;;;;-147.14;100.00;58812.66;5020374;28;45510;-61
2022/10/30 11:45:35;;;;;;;;;12.33;10.33;;;;;-147.14;100.00;58812.66;5020412;28;45214;-60
2022/10/30 11:48:08;;;;;;;;;12.67;12.67;;;;;-147.14;100.00;58812.66;5020050;28;45337;-60
2022/10/30 11:50:33;;;;;;;;;7.50;6.25;;;;;-147.14;100.00;58812.66;5013666;28;46615;-60
2022/10/30 11:53:10;;;;;;;;;11.75;11.75;;;;;-147.14;100.00;58812.66;4999356;28;66261;-60
2022/10/30 11:55:38;;;;;;;;;12.00;10.25;;;;;-147.14;100.00;58812.66;5000409;28;45418;-61
2022/10/30 11:58:05;;;;;;;;;8.75;8.75;;;;;-147.14;100.00;58812.66;5000292;28;45417;-61
2022/10/30 12:00:33;;;;;;;;;6.25;5.00;;;;;-147.14;100.00;58812.66;5000029;28;45305;-62
2022/10/30 12:02:59;;;;;;;;;8.00;5.00;;;;;-147.14;100.00;58812.66;4998825;28;45417;-61
2022/10/30 12:05:24;;;;;;;;;10.00;6.25;;;;;-147.14;100.00;58812.66;5015605;28;45518;-61
2022/10/30 12:07:50;;;;;;;;;4.50;3.75;;;;;-147.14;100.00;58812.66;5001866;28;45597;-61
2022/10/30 12:10:29;;;;;;;;;5.50;4.25;;;;;-147.14;100.00;58812.66;5019988;28;45477;-62
2022/10/30 12:12:54;;;;;;;;;4.75;4.75;;;;;-147.14;100.00;58812.66;5019963;28;45411;-61
2022/10/30 12:15:24;;;;;;;;;5.00;5.00;;;;;-147.14;100.00;58812.66;5016921;28;45282;-61
2022/10/30 12:18:01;;;;;;;;;8.75;5.75;;;;;-147.14;100.00;58812.66;5017551;28;45389;-61
2022/10/30 12:20:27;;;;;;;;;8.00;6.75;;;;;-147.14;100.00;58812.66;5017946;28;46442;-61
2022/10/30 12:22:53;;;;;;;;;6.25;5.00;;;;;-147.14;100.00;58812.66;4999333;28;60320;-62
2022/10/30 12:25:23;;;;;;;;;8.50;6.25;;;;;-147.14;100.00;58812.66;4998962;28;45495;-61
2022/10/30 12:27:49;;;;;;;;;4.50;4.00;;;;;-147.14;100.00;58812.66;4999984;28;45449;-61
2022/10/30 12:30:17;;;;;;;;;8.00;6.00;;;;;-147.14;100.00;58812.66;5001030;28;45515;-61
2022/10/30 12:32:55;;;;;;;;;6.50;5.00;;;;;-147.14;100.00;58812.66;4999612;28;45392;-61
2022/10/30 12:35:38;;;;;;;;;5.75;4.50;;;;;-147.14;100.00;58812.66;4999862;28;45359;-61
2022/10/30 12:38:08;;;;;;;;;4.00;4.00;;;;;-147.14;100.00;58812.66;5011409;28;45374;-61
2022/10/30 12:40:41;;;;;;;;;6.25;5.00;;;;;-147.14;100.00;58812.66;5018159;28;45526;-62
2022/10/30 12:43:24;;;;;;;;;5.00;5.00;;;;;-147.14;100.00;58812.66;5018233;28;45425;-62
2022/10/30 12:45:53;;;;;;;;;5.00;5.00;;;;;-147.14;100.00;58812.66;5021817;28;45355;-62
2022/10/30 12:48:25;;;;;;;;;6.00;5.25;;;;;-147.14;100.00;58812.66;5022899;28;45440;-61
2022/10/30 12:50:55;;;;;;;;;11.25;4.00;;;;;-147.14;100.00;58812.66;5015472;28;45313;-61
2022/10/30 12:53:45;;;;;;;;;7.33;6.00;;;;;-147.14;100.00;58812.66;5018980;28;45467;-61
2022/10/30 12:56:29;;;;;;;;;5.25;4.75;;;;;-147.14;100.00;58812.66;5022952;28;45291;-61
2022/10/30 12:59:30;;;;;;;;;5.00;5.00;;;;;-147.14;100.00;58812.66;5021740;28;45262;-61
2022/10/30 13:02:00;;;;;;;;;6.75;4.75;;;;;-147.14;100.00;58812.66;4981686;28;46186;-62
2022/10/30 13:04:30;;;;;;;;;5.33;5.00;;;;;-147.14;100.00;58812.66;5016900;28;45310;-61
2022/10/30 13:07:15;;;;;;;;;5.25;3.75;;;;;-147.14;100.00;58812.66;5012394;28;45330;-62
2022/10/30 13:09:44;;;;;;;;;4.25;3.00;;;;;-147.14;100.00;58812.66;5002965;28;45313;-62
2022/10/30 13:12:22;;;;;;;;;5.50;4.50;;;;;-147.14;100.00;58812.66;5002811;28;46247;-62
2022/10/30 13:14:52;;;;;;;;;4.33;4.33;;;;;-147.14;100.00;58812.66;5022149;28;45371;-62
2022/10/30 13:17:17;;;;;;;;;3.00;3.00;;;;;-147.14;100.00;58812.66;5006342;28;45378;-62
2022/10/30 13:19:46;;;;;;;;;3.00;3.00;;;;;-147.14;100.00;58812.66;5001980;28;63534;-62
2022/10/30 13:22:14;;;;;;;;;3.25;3.00;;;;;-147.14;100.00;58812.66;5002467;28;45482;-62
2022/10/30 13:24:47;;;;;;;;;2.00;2.00;;;;;-147.14;100.00;58812.66;5001539;28;45429;-62
2022/10/30 13:27:23;;;;;;;;;4.67;3.00;;;;;-147.14;100.00;58812.66;5002701;28;45428;-62
2022/10/30 13:29:53;;;;;;;;;3.50;1.50;;;;;-147.14;100.00;58812.66;5004019;28;45349;-62
2022/10/30 13:32:43;;;;;;;;;2.25;2.25;;;;;-147.14;100.00;58812.66;5002136;28;45361;-62
2022/10/30 13:35:29;;;;;;;;;4.00;2.00;;;;;-147.14;100.00;58812.66;5002455;28;45475;-62
2022/10/30 13:38:36;;;;;;;;;2.00;2.00;;;;;-147.14;100.00;58812.66;5000791;28;45461;-62
2022/10/30 13:41:05;;;;;;;;;2.00;2.00;;;;;-147.14;100.00;58812.66;4951644;28;45628;-62
2022/10/30 13:43:48;;;;;;;;;3.00;3.00;;;;;-147.14;100.00;58812.66;4941912;28;45477;-62
2022/10/30 13:46:23;;;;;;;;;4.25;3.25;;;;;-147.14;100.00;58812.66;4978810;28;45680;-62
2022/10/30 13:48:48;;;;;;;;;2.25;2.25;;;;;-147.14;100.00;58812.66;5009334;28;45445;-62
2022/10/30 13:51:26;;;;;;;;;3.00;3.00;;;;;-147.14;100.00;58812.66;5011426;28;45146;-62
2022/10/30 13:54:14;;;;;;;;;3.00;2.00;;;;;-147.14;100.00;58812.66;5017572;28;45593;-62
2022/10/30 13:56:41;;;;;;;;;2.25;1.00;;;;;-147.14;100.00;58812.66;5000678;28;45396;-62
2022/10/30 13:59:25;;;;;;;;;2.00;2.00;;;;;-147.14;100.00;58812.66;5002278;28;45423;-62
2022/10/30 14:02:04;;;;;;;;;2.00;2.00;;;;;-147.14;100.00;58812.66;5001890;28;45436;-62
2022/10/30 14:04:54;;;;;;;;;3.25;3.00;;;;;-147.14;100.00;58812.66;5000739;28;46221;-62
2022/10/30 14:07:23;;;;;;;;;4.00;2.25;;;;;-147.14;100.00;58812.66;5017246;28;45523;-62
2022/10/30 14:09:58;;;;;;;;;4.00;1.50;;;;;-147.14;100.00;58812.66;5021289;28;45339;-62
2022/10/30 14:12:46;;;;;;;;;4.00;2.25;;;;;-147.14;100.00;58812.66;5021878;28;45369;-62
2022/10/30 14:15:44;;;;;;;;;2.25;2.00;;;;;-147.14;100.00;58812.66;5019635;28;46233;-62
2022/10/30 14:18:12;;;;;;;;;2.00;2.00;;;;;-147.14;100.00;58812.66;5007986;28;45429;-62
2022/10/30 14:20:43;;;;;;;;;3.00;3.00;;;;;-147.14;100.00;58812.66;5021795;28;45444;-62
2022/10/30 14:23:14;;;;;;;;;3.50;3.25;;;;;-147.14;100.00;58812.66;5021504;28;45519;-62
2022/10/30 14:25:40;;;;;;;;;5.00;2.50;;;;;-147.14;100.00;58812.66;5020277;28;45416;-62
2022/10/30 14:28:18;;;;;;;;;6.00;3.75;;;;;-147.14;100.00;58812.66;5021424;28;45619;-62
2022/10/30 14:30:44;;;;;;;;;4.00;2.00;;;;;-147.14;100.00;58812.66;5002370;28;45337;-60
2022/10/30 14:33:35;;;;;;;;;2.00;2.00;;;;;-147.14;100.00;58812.66;5001379;28;45458;-60
2022/10/30 14:36:13;;;;;;;;;1.00;1.00;;;;;-147.14;100.00;58812.66;5009510;28;47121;-60
2022/10/30 14:38:39;;;;;;;;;3.25;2.00;;;;;-147.14;100.00;58812.66;5021144;28;45427;-62
2022/10/30 14:41:14;;;;;;;;;3.00;1.25;;;;;-147.14;100.00;58812.66;5020526;28;69066;-62
2022/10/30 14:44:02;;;;;;;;;1.25;1.25;;;;;-147.14;100.00;58812.66;5003859;28;45496;-60
2022/10/30 14:46:43;;;;;;;;;3.00;2.00;;;;;-147.14;100.00;58812.66;5019884;28;45276;-62
2022/10/30 14:49:35;;;;;;;;;1.50;1.50;;;;;-147.14;100.00;58812.66;5021120;28;45383;-62
2022/10/30 14:52:16;;;;;;;;;4.25;3.00;;;;;-147.14;100.00;58812.66;5003849;28;45534;-62
2022/10/30 14:55:15;;;;;;;;;1.00;1.00;;;;;-147.14;100.00;58812.66;5001273;28;45449;-62
2022/10/30 14:57:46;;;;;;;;;3.50;3.00;;;;;-147.14;100.00;58812.66;5001048;28;46016;-62
2022/10/30 15:00:24;;;;;;;;;3.50;3.00;;;;;-147.14;100.00;58812.66;5007397;28;45363;-62
2022/10/30 15:03:14;;;;;;;;;2.00;1.50;;;;;-147.14;100.00;58812.66;5020854;28;45463;-61
2022/10/30 15:05:57;;;;;;;;;3.00;3.00;;;;;-147.14;100.00;58812.66;5021004;28;45444;-62
2022/10/30 15:08:44;;;;;;;;;1.00;1.00;;;;;-147.14;100.00;58812.66;5006880;28;46062;-62
2022/10/30 15:11:15;;;;;;;;;4.00;3.00;;;;;-147.14;100.00;58812.66;5020809;28;45360;-62
2022/10/30 15:14:18;;;;;;;;;4.00;2.75;;;;;-147.14;100.00;58812.66;5020994;28;45223;-62
2022/10/30 15:16:44;;;;;;;;;4.00;2.75;;;;;-147.14;100.00;58812.66;4987459;28;45425;-62
2022/10/30 15:19:11;;;;;;;;;3.00;3.00;;;;;-147.14;100.00;58812.66;5016186;28;68898;-62
2022/10/30 15:21:45;;;;;;;;;1.75;1.75;;;;;-147.14;100.00;58812.66;5020631;28;45488;-62
2022/10/30 15:24:16;;;;;;;;;4.50;4.50;;;;;-147.14;100.00;58812.66;5020728;28;45194;-62
2022/10/30 15:26:48;;;;;;;;;5.25;3.75;;;;;-147.14;100.00;58812.66;5019533;28;45540;-62
2022/10/30 15:29:18;;;;;;;;;2.00;2.00;;;;;-147.14;100.00;58812.66;5012804;28;46458;-62
2022/10/30 15:31:43;;;;;;;;;4.00;4.00;;;;;-147.14;100.00;58812.66;5015620;28;45404;-62
2022/10/30 15:34:21;;;;;;;;;3.00;3.00;;;;;-147.14;100.00;58812.66;4999953;28;63162;-62
2022/10/30 15:36:46;;;;;;;;;4.50;3.00;;;;;-147.14;100.00;58812.66;5000528;28;45438;-62
2022/10/30 15:39:14;;;;;;;;;2.50;2.00;;;;;-147.14;100.00;58812.66;4999646;28;65863;-62
2022/10/30 15:41:45;;;;;;;;;3.50;3.50;;;;;-147.14;100.00;58812.66;5000426;28;45406;-62
2022/10/30 15:44:13;;;;;;;;;5.00;2.50;;;;;-147.14;100.00;58812.66;5000620;28;45432;-62
2022/10/30 15:46:39;;;;;;;;;4.50;4.00;;;;;-147.14;100.00;58812.66;5000402;28;45437;-62
2022/10/30 15:49:04;;;;;;;;;3.67;3.00;;;;;-147.14;100.00;58812.66;4999112;28;47969;-62
2022/10/30 15:51:31;;;;;;;;;3.00;2.50;;;;;-147.14;100.00;58812.66;5001782;28;56793;-62
2022/10/30 15:53:59;;;;;;;;;2.00;2.00;;;;;-147.14;100.00;58812.66;5020345;28;45439;-62
2022/10/30 15:56:25;;;;;;;;;2.00;2.00;;;;;-147.14;100.00;58812.66;5020161;28;45251;-62
2022/10/30 15:58:55;;;;;;;;;2.00;2.00;;;;;-147.14;100.00;58812.66;5019940;28;46306;-62
2022/10/30 16:01:42;;;;;;;;;6.75;3.75;;;;;-147.14;100.00;58812.66;5019774;28;45431;-62
2022/10/30 16:04:15;;;;;;;;;12.67;6.00;;;;;-147.14;100.00;58812.66;5020164;28;45458;-62
2022/10/30 16:06:47;;;;;;;;;8.00;7.67;;;;;-147.14;100.00;58812.66;5018872;28;45353;-62
2022/10/30 16:09:13;;;;;;;;;8.00;5.00;;;;;-147.14;100.00;58812.66;5019811;28;46127;-62
2022/10/30 16:11:39;;;;;;;;;8.00;8.00;;;;;-147.14;100.00;58812.66;5020019;28;45337;-62
2022/10/30 16:14:20;;;;;;;;;6.00;6.00;;;;;-147.14;100.00;58812.66;5019111;28;64319;-60
2022/10/30 16:16:46;;;;;;;;;4.50;3.25;;;;;-147.14;100.00;58812.66;5003484;28;45459;-62
2022/10/30 16:19:19;;;;;;;;;5.00;4.67;;;;;-147.14;100.00;58812.66;4997698;28;46059;-60
2022/10/30 16:21:46;;;;;;;;;4.67;4.00;;;;;-147.14;100.00;58812.66;4999904;28;45327;-60
2022/10/30 16:24:11;;;;;;;;;6.25;4.75;;;;;-147.14;100.00;58812.66;5000001;28;45282;-60
2022/10/30 16:26:37;;;;;;;;;3.00;3.00;;;;;-147.14;100.00;58812.66;5014732;28;51840;-62
2022/10/30 16:29:11;;;;;;;;;4.00;4.00;;;;;-147.14;100.00;58812.66;4999645;28;46158;-62
2022/10/30 16:31:37;;;;;;;;;4.33;3.00;;;;;-147.14;100.00;58812.66;4999655;28;45382;-62
2022/10/30 16:34:03;;;;;;;;;4.33;2.00;;;;;-147.14;100.00;58812.66;5014588;28;55163;-60
2022/10/30 16:36:29;;;;;;;;;4.00;4.00;;;;;-147.14;100.00;58812.66;4998348;28;45348;-62
2022/10/30 16:38:55;;;;;;;;;5.00;5.00;;;;;-147.14;100.00;58812.66;4998243;28;47272;-62
2022/10/30 16:41:20;;;;;;;;;5.67;5.00;;;;;-147.14;100.00;58812.66;4999576;28;45452;-62
2022/10/30 16:44:05;;;;;;;;;3.25;3.25;;;;;-147.14;100.00;58812.66;4998936;28;65824;-62
2022/10/30 16:46:34;;;;;;;;;4.00;4.00;;;;;-147.14;100.00;58812.66;4999379;28;45473;-62
2022/10/30 16:49:04;;;;;;;;;4.00;4.00;;;;;-147.14;100.00;58812.66;5014824;28;46386;-62
2022/10/30 16:51:29;;;;;;;;;6.25;4.75;;;;;-147.14;100.00;58812.66;5000578;28;45367;-60
2022/10/30 16:53:55;;;;;;;;;5.33;4.33;;;;;-147.14;100.00;58812.66;5019486;28;45417;-60
2022/10/30 16:56:30;;;;;;;;;5.00;5.00;;;;;-147.14;100.00;58812.66;5018521;28;68705;-60
2022/10/30 16:59:25;;;;;;;;;5.00;5.00;;;;;-147.14;100.00;58812.66;5019211;28;46099;-60
2022/10/30 17:01:54;;;;;;;;;5.50;4.75;;;;;-147.14;100.00;58812.66;5018736;28;45519;-62
2022/10/30 17:04:19;;;;;;;;;8.00;6.33;;;;;-147.14;100.00;58812.66;5018016;28;45394;-62
2022/10/30 17:06:44;;;;;;;;;8.00;6.00;;;;;-147.14;100.00;58812.66;5010916;28;63879;-62
2022/10/30 17:09:27;;;;;;;;;5.67;5.00;;;;;-147.14;100.00;58812.66;4999375;28;46150;-60
2022/10/30 17:12:16;;;;;;;;;6.00;6.00;;;;;-147.14;100.00;58812.66;4999318;28;45387;-62
2022/10/30 17:15:03;;;;;;;;;6.50;4.75;;;;;-147.14;100.00;58812.66;4998192;28;45517;-62
2022/10/30 17:17:39;;;;;;;;;3.50;3.50;;;;;-147.14;100.00;58812.66;5014510;28;45324;-62
2022/10/30 17:20:12;;;;;;;;;5.75;3.50;;;;;-147.14;100.00;58812.66;5018916;28;45410;-62
2022/10/30 17:22:38;;;;;;;;;4.25;3.00;;;;;-147.14;100.00;58812.66;5018794;28;45448;-62
2022/10/30 17:25:34;;;;;;;;;3.00;2.00;;;;;-147.14;100.00;58812.66;5017873;28;45401;-61
2022/10/30 17:27:59;;;;;;;;;3.00;3.00;;;;;-147.14;100.00;58812.66;5014796;28;45367;-62
2022/10/30 17:30:27;;;;;;;;;3.00;3.00;;;;;-147.14;100.00;58812.66;5003037;28;45596;-62
2022/10/30 17:32:53;;;;;;;;;1.75;1.75;;;;;-147.14;100.00;58812.66;5002294;28;45258;-62
2022/10/30 17:35:19;;;;;;;;;2.25;2.25;;;;;-147.14;100.00;58812.66;5002604;28;45390;-62
2022/10/30 17:37:44;;;;;;;;;2.00;1.50;;;;;-147.14;100.00;58812.66;5002133;28;47661;-62
2022/10/30 17:40:11;;;;;;;;;1.00;1.00;;;;;-147.14;100.00;58812.66;5001627;28;66014;-62
2022/10/30 17:42:36;;;;;;;;;2.00;2.00;;;;;-147.14;100.00;58812.66;5002529;28;45384;-62
2022/10/30 17:45:05;;;;;;;;;3.25;3.25;;;;;-147.14;100.00;58812.66;5002423;28;45522;-62
2022/10/30 17:47:31;;;;;;;;;2.75;2.75;;;;;-147.14;100.00;58812.66;5002350;28;45429;-62
2022/10/30 17:49:58;;;;;;;;;0.00;0.00;;;;;-147.14;100.00;58812.66;5004467;28;45424;-62
2022/10/30 17:52:24;;;;;;;;;2.00;2.00;;;;;-147.14;100.00;58812.66;5002022;28;45460;-62
2022/10/30 17:54:49;;;;;;;;;2.00;2.00;;;;;-147.14;100.00;58812.66;5003665;28;68110;-62
2022/10/30 17:57:15;;;;;;;;;2.00;2.00;;;;;-147.14;100.00;58812.66;5021156;28;68824;-62
2022/10/30 17:59:41;;;;;;;;;3.00;2.00;;;;;-147.14;100.00;58812.66;5021758;28;45371;-62
2022/10/30 18:02:15;;;;;;;;;3.50;2.00;;;;;-147.14;100.00;58812.66;5021686;28;45406;-62
2022/10/30 18:04:41;;;;;;;;;2.50;2.50;;;;;-147.14;100.00;58812.66;5021804;28;45416;-62
2022/10/30 18:07:10;;;;;;;;;2.75;2.00;;;;;-147.14;100.00;58812.66;5011497;28;45418;-62
2022/10/30 18:09:36;;;;;;;;;2.00;2.00;;;;;-147.14;100.00;58812.66;5001882;28;45411;-62
2022/10/30 18:12:02;;;;;;;;;2.25;2.25;;;;;-147.14;100.00;58812.66;5001805;28;45407;-62
2022/10/30 18:14:27;;;;;;;;;2.00;1.00;;;;;-147.14;100.00;58812.66;5017320;28;45526;-62
2022/10/30 18:16:53;;;;;;;;;4.00;2.00;;;;;-147.14;100.00;58812.66;5006374;28;55828;-62
2022/10/30 18:19:18;;;;;;;;;1.50;1.50;;;;;-147.14;100.00;58812.66;5001770;28;45420;-62
2022/10/30 18:21:50;;;;;;;;;2.00;2.00;;;;;-147.14;100.00;58812.66;5000831;28;72168;-62
2022/10/30 18:24:15;;;;;;;;;4.75;2.25;;;;;-147.14;100.00;58812.66;5002052;28;45407;-62